Time;durP1;ratioP1;P1;durP2;ratioP2;P2;SDS_P1;SDS_P2;PMS_P1;PMS_P2;Temp;Humidity;BMP_temperature;BMP_pressure;BME280_temperature;BME280_humidity;BME280_pressure;Samples;Min_cycle;Max_cycle;Signal;HPM_P1;HPM_P2
2023/03/02 00:00:41;;;;;;;24.55;16.75;;;;;;;;;;5063260;28;20130;-61
2023/03/02 00:03:09;;;;;;;30.35;19.67;;;;;;;;;;5080872;28;20036;-62
2023/03/02 00:05:36;;;;;;;35.47;17.08;;;;;;;;;;5084659;28;20084;-62
2023/03/02 00:08:03;;;;;;;25.50;17.13;;;;;;;;;;5084444;28;20040;-61
2023/03/02 00:10:29;;;;;;;32.85;19.55;;;;;;;;;;5089105;28;20942;-62
2023/03/02 00:12:55;;;;;;;31.90;19.55;;;;;;;;;;5086482;28;20067;-61
2023/03/02 00:15:22;;;;;;;27.38;18.73;;;;;;;;;;5050637;28;20506;-62
2023/03/02 00:17:48;;;;;;;26.85;19.33;;;;;;;;;;5062023;28;20059;-61
2023/03/02 00:20:14;;;;;;;30.73;20.48;;;;;;;;;;5061106;28;20139;-61
2023/03/02 00:22:42;;;;;;;31.20;20.35;;;;;;;;;;5084309;28;20127;-61
2023/03/02 00:25:09;;;;;;;33.10;20.23;;;;;;;;;;5065529;28;20123;-61
2023/03/02 00:27:35;;;;;;;40.85;19.80;;;;;;;;;;5086425;28;20478;-61
2023/03/02 00:30:02;;;;;;;29.25;19.10;;;;;;;;;;5082333;28;20509;-61
2023/03/02 00:32:28;;;;;;;33.22;20.05;;;;;;;;;;5076456;28;20073;-63
2023/03/02 00:34:54;;;;;;;30.52;20.75;;;;;;;;;;5085391;28;20052;-61
2023/03/02 00:37:20;;;;;;;29.52;19.90;;;;;;;;;;5075572;28;20127;-61
2023/03/02 00:39:46;;;;;;;30.65;19.65;;;;;;;;;;5083328;28;20032;-61
2023/03/02 00:42:12;;;;;;;29.58;20.45;;;;;;;;;;5083959;28;20043;-61
2023/03/02 00:44:38;;;;;;;27.42;18.77;;;;;;;;;;5064162;28;20044;-62
2023/03/02 00:47:04;;;;;;;26.02;17.00;;;;;;;;;;5083474;28;20040;-62
2023/03/02 00:49:31;;;;;;;24.45;17.15;;;;;;;;;;5084908;28;20036;-62
2023/03/02 00:51:57;;;;;;;24.15;16.85;;;;;;;;;;5086408;28;20061;-62
2023/03/02 00:54:23;;;;;;;21.15;15.07;;;;;;;;;;5087761;28;20059;-62
2023/03/02 00:56:49;;;;;;;21.75;13.10;;;;;;;;;;5084634;28;20039;-61
2023/03/02 00:59:27;;;;;;;20.20;14.00;;;;;;;;;;5080143;28;20040;-62
2023/03/02 01:01:57;;;;;;;17.90;12.10;;;;;;;;;;5082700;28;20501;-61
2023/03/02 01:04:28;;;;;;;24.25;15.75;;;;;;;;;;5085827;28;20117;-62
2023/03/02 01:06:55;;;;;;;22.75;13.52;;;;;;;;;;5083874;28;20531;-62
2023/03/02 01:09:21;;;;;;;25.95;16.73;;;;;;;;;;5065644;28;20043;-61
2023/03/02 01:11:47;;;;;;;25.35;16.83;;;;;;;;;;5084227;28;20056;-61
2023/03/02 01:14:14;;;;;;;21.23;13.88;;;;;;;;;;5083592;28;20135;-62
2023/03/02 01:16:40;;;;;;;22.55;14.25;;;;;;;;;;5082504;28;21095;-61
2023/03/02 01:19:06;;;;;;;26.80;16.73;;;;;;;;;;5078253;28;20052;-61
2023/03/02 01:21:32;;;;;;;21.23;13.27;;;;;;;;;;5082395;28;20039;-61
2023/03/02 01:23:58;;;;;;;19.55;12.93;;;;;;;;;;5076855;28;20406;-61
2023/03/02 01:26:25;;;;;;;23.25;14.60;;;;;;;;;;5083631;28;20036;-61
2023/03/02 01:28:54;;;;;;;19.02;12.68;;;;;;;;;;5083809;28;20440;-61
2023/03/02 01:31:24;;;;;;;23.73;15.27;;;;;;;;;;5044893;28;20093;-61
2023/03/02 01:33:50;;;;;;;25.65;15.25;;;;;;;;;;5087810;28;20036;-61
2023/03/02 01:36:16;;;;;;;20.20;15.48;;;;;;;;;;5087697;28;20093;-61
2023/03/02 01:38:43;;;;;;;25.38;16.00;;;;;;;;;;5086473;28;20097;-62
2023/03/02 01:41:09;;;;;;;25.92;17.10;;;;;;;;;;5066132;28;20044;-61
2023/03/02 01:43:35;;;;;;;27.17;16.80;;;;;;;;;;5088498;28;20044;-61
2023/03/02 01:46:04;;;;;;;24.42;17.35;;;;;;;;;;5084221;28;20093;-61
2023/03/02 01:48:33;;;;;;;31.13;18.67;;;;;;;;;;5063307;28;20513;-61
2023/03/02 01:51:00;;;;;;;30.00;18.40;;;;;;;;;;5086499;28;20036;-61
2023/03/02 01:53:28;;;;;;;23.90;16.90;;;;;;;;;;5090107;28;20194;-61
2023/03/02 01:55:55;;;;;;;20.95;16.35;;;;;;;;;;5071338;28;20133;-61
2023/03/02 01:58:21;;;;;;;24.33;16.83;;;;;;;;;;5084245;28;20059;-62
2023/03/02 02:00:48;;;;;;;25.83;17.63;;;;;;;;;;5088292;28;20036;-61
2023/03/02 02:03:20;;;;;;;26.65;18.15;;;;;;;;;;5088722;28;20044;-62
2023/03/02 02:05:53;;;;;;;24.10;17.63;;;;;;;;;;5093738;28;20394;-61
2023/03/02 02:08:20;;;;;;;27.13;17.17;;;;;;;;;;5079121;28;20040;-61
2023/03/02 02:10:46;;;;;;;26.83;16.85;;;;;;;;;;5087768;28;20887;-61
2023/03/02 02:13:13;;;;;;;23.80;15.85;;;;;;;;;;5068608;28;20048;-61
2023/03/02 02:15:39;;;;;;;26.67;17.83;;;;;;;;;;5089275;28;20044;-61
2023/03/02 02:18:06;;;;;;;25.73;16.50;;;;;;;;;;5091897;28;20044;-61
2023/03/02 02:20:34;;;;;;;24.33;16.92;;;;;;;;;;5088405;28;20051;-62
2023/03/02 02:23:04;;;;;;;23.92;15.50;;;;;;;;;;5090591;28;20482;-61
2023/03/02 02:25:33;;;;;;;24.90;16.40;;;;;;;;;;5090466;28;20038;-61
2023/03/02 02:27:59;;;;;;;21.55;15.32;;;;;;;;;;5089120;28;20035;-61
2023/03/02 02:30:26;;;;;;;20.85;13.73;;;;;;;;;;5095268;28;20435;-62
2023/03/02 02:32:54;;;;;;;23.70;14.15;;;;;;;;;;5088548;28;20101;-61
2023/03/02 02:35:26;;;;;;;20.45;15.45;;;;;;;;;;5084780;28;20032;-61
2023/03/02 02:37:53;;;;;;;22.63;13.63;;;;;;;;;;5080366;28;20036;-61
2023/03/02 02:40:37;;;;;;;18.25;13.25;;;;;;;;;;5089287;28;20063;-62
2023/03/02 02:43:04;;;;;;;19.88;13.30;;;;;;;;;;5089654;28;20118;-61
2023/03/02 02:45:30;;;;;;;21.98;14.10;;;;;;;;;;5088103;28;20047;-61
2023/03/02 02:47:57;;;;;;;17.42;12.80;;;;;;;;;;5090558;28;20071;-61
2023/03/02 02:50:29;;;;;;;18.95;13.95;;;;;;;;;;5088990;28;20043;-61
2023/03/02 02:52:58;;;;;;;25.23;16.23;;;;;;;;;;5086984;28;20140;-61
2023/03/02 02:55:25;;;;;;;25.75;14.00;;;;;;;;;;5084387;28;20054;-61
2023/03/02 02:57:54;;;;;;;27.48;15.48;;;;;;;;;;5081840;28;20064;-61
2023/03/02 03:00:21;;;;;;;30.45;16.25;;;;;;;;;;5087330;28;20032;-61
2023/03/02 03:02:50;;;;;;;32.85;16.77;;;;;;;;;;5072242;28;20036;-61
2023/03/02 03:05:16;;;;;;;44.10;20.38;;;;;;;;;;5091049;28;20082;-61
2023/03/02 03:07:43;;;;;;;36.80;19.77;;;;;;;;;;5089284;28;20532;-61
2023/03/02 03:10:09;;;;;;;36.13;20.17;;;;;;;;;;5072033;28;20112;-61
2023/03/02 03:12:35;;;;;;;39.33;22.98;;;;;;;;;;5087573;28;20067;-61
2023/03/02 03:15:02;;;;;;;36.35;20.15;;;;;;;;;;5068173;28;20123;-61
2023/03/02 03:17:28;;;;;;;32.40;19.88;;;;;;;;;;5071703;28;20087;-61
2023/03/02 03:20:05;;;;;;;33.58;19.38;;;;;;;;;;5088003;28;20043;-61
2023/03/02 03:22:32;;;;;;;42.22;22.38;;;;;;;;;;5087277;28;20051;-61
2023/03/02 03:24:58;;;;;;;33.75;18.58;;;;;;;;;;5083172;28;20190;-61
2023/03/02 03:27:24;;;;;;;40.78;20.48;;;;;;;;;;5089890;28;20421;-61
2023/03/02 03:29:50;;;;;;;32.85;18.70;;;;;;;;;;5082126;28;20118;-61
2023/03/02 03:32:17;;;;;;;39.47;21.20;;;;;;;;;;5085863;28;20071;-62
2023/03/02 03:34:43;;;;;;;37.85;20.50;;;;;;;;;;5084324;28;20050;-61
2023/03/02 03:37:11;;;;;;;37.47;21.92;;;;;;;;;;5062232;28;20182;-61
2023/03/02 03:39:37;;;;;;;38.22;20.52;;;;;;;;;;5069594;28;20051;-62
2023/03/02 03:42:03;;;;;;;36.20;22.58;;;;;;;;;;5066696;28;20481;-61
2023/03/02 03:44:29;;;;;;;43.40;23.95;;;;;;;;;;5085952;28;20043;-61
2023/03/02 03:46:55;;;;;;;35.67;20.25;;;;;;;;;;5088710;28;20064;-61
2023/03/02 03:49:22;;;;;;;33.15;20.23;;;;;;;;;;5087266;28;20040;-61
2023/03/02 03:51:48;;;;;;;48.85;25.10;;;;;;;;;;5086150;28;20050;-61
2023/03/02 03:54:14;;;;;;;43.63;26.48;;;;;;;;;;5087320;28;20043;-61
2023/03/02 03:56:43;;;;;;;43.70;23.50;;;;;;;;;;5071943;28;20067;-62
2023/03/02 03:59:12;;;;;;;44.53;24.67;;;;;;;;;;5088961;28;20052;-61
2023/03/02 04:01:43;;;;;;;44.83;27.08;;;;;;;;;;5085102;28;20474;-61
2023/03/02 04:04:14;;;;;;;52.72;26.92;;;;;;;;;;5080159;28;20040;-61
2023/03/02 04:06:40;;;;;;;42.83;23.88;;;;;;;;;;5089323;28;20036;-61
2023/03/02 04:09:06;;;;;;;40.45;25.05;;;;;;;;;;5068811;28;20178;-61
2023/03/02 04:11:33;;;;;;;46.30;24.05;;;;;;;;;;5086675;28;20052;-61
2023/03/02 04:14:00;;;;;;;38.33;22.52;;;;;;;;;;5088463;28;20733;-61
2023/03/02 04:16:26;;;;;;;39.10;22.58;;;;;;;;;;5082089;28;20162;-61
2023/03/02 04:18:52;;;;;;;33.20;20.98;;;;;;;;;;5087526;28;20068;-61
2023/03/02 04:21:18;;;;;;;33.08;21.15;;;;;;;;;;5087028;28;20047;-61
2023/03/02 04:23:45;;;;;;;38.38;20.83;;;;;;;;;;5084800;28;20048;-61
2023/03/02 04:26:11;;;;;;;38.83;21.20;;;;;;;;;;5084137;28;20036;-61
2023/03/02 04:28:37;;;;;;;28.48;18.15;;;;;;;;;;5098298;28;20503;-61
2023/03/02 04:31:03;;;;;;;38.95;20.55;;;;;;;;;;5067406;28;20068;-61
2023/03/02 04:33:29;;;;;;;31.80;20.02;;;;;;;;;;5090089;28;20446;-61
2023/03/02 04:35:55;;;;;;;41.83;21.90;;;;;;;;;;5081820;28;20040;-61
2023/03/02 04:38:22;;;;;;;29.23;19.67;;;;;;;;;;5061100;28;20036;-61
2023/03/02 04:40:48;;;;;;;34.63;21.40;;;;;;;;;;5084458;28;20036;-61
2023/03/02 04:43:14;;;;;;;33.22;20.70;;;;;;;;;;5086402;28;20323;-61
2023/03/02 04:45:40;;;;;;;33.08;19.38;;;;;;;;;;5068557;28;20118;-61
2023/03/02 04:48:07;;;;;;;34.10;21.38;;;;;;;;;;5086534;28;20055;-61
2023/03/02 04:50:33;;;;;;;34.72;20.20;;;;;;;;;;5083711;28;20044;-61
2023/03/02 04:52:59;;;;;;;34.00;20.38;;;;;;;;;;5084739;28;20043;-61
2023/03/02 04:55:26;;;;;;;30.38;19.10;;;;;;;;;;5085975;28;20040;-61
2023/03/02 04:57:53;;;;;;;28.48;17.73;;;;;;;;;;5086474;28;20182;-62
2023/03/02 05:00:19;;;;;;;33.97;19.17;;;;;;;;;;5082755;28;20123;-61
2023/03/02 05:02:46;;;;;;;43.25;20.40;;;;;;;;;;5083467;28;20036;-61
2023/03/02 05:05:16;;;;;;;33.03;19.08;;;;;;;;;;5086219;28;20064;-62
2023/03/02 05:07:43;;;;;;;41.22;20.92;;;;;;;;;;5086657;28;20044;-61
2023/03/02 05:10:10;;;;;;;32.97;19.25;;;;;;;;;;5090884;28;20426;-61
2023/03/02 05:12:53;;;;;;;33.95;18.52;;;;;;;;;;5091451;28;20185;-61
2023/03/02 05:15:27;;;;;;;29.67;18.30;;;;;;;;;;5095730;28;20470;-61
2023/03/02 05:17:53;;;;;;;38.88;20.83;;;;;;;;;;5088566;28;20070;-61
2023/03/02 05:20:20;;;;;;;29.80;17.52;;;;;;;;;;5095386;28;20036;-62
2023/03/02 05:22:46;;;;;;;36.88;21.17;;;;;;;;;;5087420;28;20043;-61
2023/03/02 05:25:13;;;;;;;35.28;19.65;;;;;;;;;;5085436;28;20048;-61
2023/03/02 05:27:39;;;;;;;31.90;19.33;;;;;;;;;;5088605;28;20108;-61
2023/03/02 05:30:06;;;;;;;34.65;21.55;;;;;;;;;;5090301;28;20048;-61
2023/03/02 05:32:32;;;;;;;38.38;21.20;;;;;;;;;;5067562;28;20207;-61
2023/03/02 05:34:59;;;;;;;35.40;21.33;;;;;;;;;;5089682;28;20051;-61
2023/03/02 05:37:25;;;;;;;38.58;21.33;;;;;;;;;;5081831;28;20043;-61
2023/03/02 05:39:51;;;;;;;43.50;22.02;;;;;;;;;;5088673;28;20051;-61
2023/03/02 05:42:17;;;;;;;35.05;21.10;;;;;;;;;;5070165;28;20184;-61
2023/03/02 05:44:43;;;;;;;37.83;20.50;;;;;;;;;;5089099;28;20402;-61
2023/03/02 05:47:10;;;;;;;34.55;22.75;;;;;;;;;;5087637;28;20541;-61
2023/03/02 05:49:36;;;;;;;44.40;24.77;;;;;;;;;;5088776;28;20097;-61
2023/03/02 05:52:02;;;;;;;42.92;23.55;;;;;;;;;;5088859;28;20105;-61
2023/03/02 05:54:28;;;;;;;40.25;24.60;;;;;;;;;;5092247;28;20524;-61
2023/03/02 05:56:54;;;;;;;41.65;23.55;;;;;;;;;;5085471;28;20122;-61
2023/03/02 05:59:20;;;;;;;39.08;23.30;;;;;;;;;;5087765;28;20040;-61
2023/03/02 06:01:47;;;;;;;40.75;23.38;;;;;;;;;;5088266;28;20510;-61
2023/03/02 06:04:13;;;;;;;41.25;23.13;;;;;;;;;;5095355;28;20085;-61
2023/03/02 06:06:39;;;;;;;38.92;23.40;;;;;;;;;;5066929;28;20040;-61
2023/03/02 06:09:05;;;;;;;44.42;25.15;;;;;;;;;;5089511;28;20036;-61
2023/03/02 06:11:31;;;;;;;42.78;25.42;;;;;;;;;;5085886;28;20036;-61
2023/03/02 06:13:58;;;;;;;46.00;26.30;;;;;;;;;;5088138;28;20518;-61
2023/03/02 06:16:24;;;;;;;60.70;28.10;;;;;;;;;;5089123;28;20458;-61
2023/03/02 06:18:50;;;;;;;54.67;26.63;;;;;;;;;;5084447;28;20047;-61
2023/03/02 06:21:16;;;;;;;57.15;30.38;;;;;;;;;;5088156;28;20517;-61
2023/03/02 06:23:42;;;;;;;50.88;28.77;;;;;;;;;;5085251;28;20447;-61
2023/03/02 06:26:09;;;;;;;53.90;27.10;;;;;;;;;;5080728;28;20478;-60
2023/03/02 06:28:36;;;;;;;58.08;30.20;;;;;;;;;;5085839;28;20040;-60
2023/03/02 06:31:02;;;;;;;57.78;30.10;;;;;;;;;;5066438;28;20044;-63
2023/03/02 06:33:29;;;;;;;59.15;30.60;;;;;;;;;;5092811;28;20043;-60
2023/03/02 06:35:55;;;;;;;58.08;30.73;;;;;;;;;;5084873;28;20346;-60
2023/03/02 06:38:22;;;;;;;58.45;30.55;;;;;;;;;;5081058;28;20574;-63
2023/03/02 06:40:48;;;;;;;61.13;31.33;;;;;;;;;;5085349;28;20036;-63
2023/03/02 06:43:14;;;;;;;67.40;33.60;;;;;;;;;;5073163;28;20048;-62
2023/03/02 06:45:43;;;;;;;66.88;34.90;;;;;;;;;;5081963;28;20036;-63
2023/03/02 06:48:09;;;;;;;57.88;32.15;;;;;;;;;;5070635;28;20035;-61
2023/03/02 06:50:35;;;;;;;61.83;32.60;;;;;;;;;;5087484;28;20052;-61
2023/03/02 06:53:01;;;;;;;62.63;32.67;;;;;;;;;;5082606;28;20044;-60
2023/03/02 06:55:28;;;;;;;66.07;33.72;;;;;;;;;;5088395;28;20409;-61
2023/03/02 06:57:54;;;;;;;69.85;34.05;;;;;;;;;;5091106;28;20483;-60
2023/03/02 07:00:26;;;;;;;68.22;34.05;;;;;;;;;;5086083;28;20044;-64
2023/03/02 07:02:52;;;;;;;60.22;32.00;;;;;;;;;;5085282;28;20040;-61
2023/03/02 07:05:19;;;;;;;63.55;32.80;;;;;;;;;;5087674;28;20040;-61
2023/03/02 07:07:45;;;;;;;76.95;34.22;;;;;;;;;;5086514;28;20032;-61
2023/03/02 07:10:12;;;;;;;62.65;32.15;;;;;;;;;;5066113;28;20049;-61
2023/03/02 07:12:38;;;;;;;69.75;35.13;;;;;;;;;;5084688;28;20410;-61
2023/03/02 07:15:09;;;;;;;57.92;31.05;;;;;;;;;;5088969;28;20412;-61
2023/03/02 07:17:36;;;;;;;59.78;31.52;;;;;;;;;;5087224;28;20561;-61
2023/03/02 07:20:04;;;;;;;60.38;33.55;;;;;;;;;;5085450;28;20056;-61
2023/03/02 07:22:30;;;;;;;56.70;30.63;;;;;;;;;;5082012;28;20126;-61
2023/03/02 07:24:56;;;;;;;52.20;31.17;;;;;;;;;;5071216;28;20044;-62
2023/03/02 07:27:23;;;;;;;58.00;29.30;;;;;;;;;;5070225;28;20040;-61
2023/03/02 07:29:49;;;;;;;64.30;32.83;;;;;;;;;;5086291;28;20046;-62
2023/03/02 07:32:15;;;;;;;63.97;29.92;;;;;;;;;;5086723;28;20474;-62
2023/03/02 07:34:41;;;;;;;59.65;29.95;;;;;;;;;;5086749;28;20044;-61
2023/03/02 07:37:07;;;;;;;63.15;30.67;;;;;;;;;;5067448;28;20043;-62
2023/03/02 07:39:33;;;;;;;58.88;31.58;;;;;;;;;;5045975;28;20047;-62
2023/03/02 07:42:00;;;;;;;61.15;33.78;;;;;;;;;;5085337;28;20078;-62
2023/03/02 07:44:28;;;;;;;52.88;30.13;;;;;;;;;;5090663;28;20048;-61
2023/03/02 07:46:54;;;;;;;58.25;29.08;;;;;;;;;;5068366;28;20028;-61
2023/03/02 07:49:20;;;;;;;56.15;28.00;;;;;;;;;;5083337;28;20040;-62
2023/03/02 07:51:47;;;;;;;55.72;30.60;;;;;;;;;;5085199;28;20047;-62
2023/03/02 07:54:13;;;;;;;61.03;28.75;;;;;;;;;;5085770;28;20055;-61
2023/03/02 07:56:40;;;;;;;57.83;29.42;;;;;;;;;;5081093;28;20041;-61
2023/03/02 07:59:06;;;;;;;56.42;29.52;;;;;;;;;;5060188;28;20075;-62
2023/03/02 08:01:32;;;;;;;56.17;27.75;;;;;;;;;;5063437;28;20521;-62
2023/03/02 08:03:58;;;;;;;48.08;25.80;;;;;;;;;;5078673;28;20036;-62
2023/03/02 08:06:25;;;;;;;54.05;29.83;;;;;;;;;;5079828;28;20036;-62
2023/03/02 08:08:51;;;;;;;51.20;27.88;;;;;;;;;;5083463;28;20067;-61
2023/03/02 08:11:17;;;;;;;57.92;28.50;;;;;;;;;;5081618;28;20505;-61
2023/03/02 08:13:44;;;;;;;49.25;26.20;;;;;;;;;;5082677;28;20079;-61
2023/03/02 08:16:11;;;;;;;48.38;24.25;;;;;;;;;;5083493;28;20039;-61
2023/03/02 08:18:38;;;;;;;51.03;25.88;;;;;;;;;;5061583;28;20603;-61
2023/03/02 08:21:05;;;;;;;46.20;25.23;;;;;;;;;;5082381;28;20048;-61
2023/03/02 08:23:31;;;;;;;57.25;28.13;;;;;;;;;;5086709;28;20040;-61
2023/03/02 08:25:57;;;;;;;56.40;26.48;;;;;;;;;;5087734;28;20239;-61
2023/03/02 08:28:23;;;;;;;47.72;26.80;;;;;;;;;;5081405;28;20398;-61
2023/03/02 08:30:56;;;;;;;56.10;27.70;;;;;;;;;;5083944;28;20036;-61
2023/03/02 08:33:22;;;;;;;50.88;26.35;;;;;;;;;;5082141;28;20072;-61
2023/03/02 08:36:02;;;;;;;99.15;30.45;;;;;;;;;;5078893;28;20074;-61
2023/03/02 08:38:28;;;;;;;48.83;24.25;;;;;;;;;;5077394;28;20036;-61
2023/03/02 08:40:55;;;;;;;39.95;24.27;;;;;;;;;;5081862;28;20052;-61
2023/03/02 08:43:22;;;;;;;47.40;24.92;;;;;;;;;;5084260;28;20031;-61
2023/03/02 08:45:52;;;;;;;43.72;23.83;;;;;;;;;;5086061;28;20146;-61
2023/03/02 08:48:18;;;;;;;48.28;22.88;;;;;;;;;;5084849;28;20127;-61
2023/03/02 08:50:44;;;;;;;42.17;22.67;;;;;;;;;;5080353;28;20181;-61
2023/03/02 08:53:11;;;;;;;52.10;28.10;;;;;;;;;;5083712;28;20054;-61
2023/03/02 08:55:37;;;;;;;52.50;25.67;;;;;;;;;;5085419;28;20058;-61
2023/03/02 08:58:03;;;;;;;57.90;27.20;;;;;;;;;;5086085;28;20039;-62
2023/03/02 09:00:29;;;;;;;52.60;27.50;;;;;;;;;;5087533;28;20126;-61
2023/03/02 09:02:56;;;;;;;55.33;27.85;;;;;;;;;;5083363;28;20036;-61
2023/03/02 09:05:22;;;;;;;48.53;26.70;;;;;;;;;;5084159;28;20121;-61
2023/03/02 09:07:48;;;;;;;45.38;27.20;;;;;;;;;;5085009;28;20571;-61
2023/03/02 09:10:14;;;;;;;54.50;28.00;;;;;;;;;;5072225;28;20102;-61
2023/03/02 09:12:40;;;;;;;48.75;27.02;;;;;;;;;;5083213;28;20059;-61
2023/03/02 09:15:06;;;;;;;56.42;28.15;;;;;;;;;;5082537;28;20054;-61
2023/03/02 09:17:33;;;;;;;59.28;28.50;;;;;;;;;;5068348;28;20387;-62
2023/03/02 09:19:59;;;;;;;55.45;25.00;;;;;;;;;;5060072;28;20035;-62
2023/03/02 09:22:25;;;;;;;45.78;22.67;;;;;;;;;;5064130;28;20044;-63
2023/03/02 09:24:51;;;;;;;54.80;26.55;;;;;;;;;;5083205;28;20039;-63
2023/03/02 09:27:17;;;;;;;43.67;25.65;;;;;;;;;;5083643;28;20044;-63
2023/03/02 09:29:43;;;;;;;51.75;26.48;;;;;;;;;;5084757;28;20040;-62
2023/03/02 09:32:10;;;;;;;50.60;25.63;;;;;;;;;;5086272;28;20044;-63
2023/03/02 09:34:36;;;;;;;47.70;24.50;;;;;;;;;;5067018;28;20147;-63
2023/03/02 09:37:03;;;;;;;48.90;25.65;;;;;;;;;;5086116;28;20079;-63
2023/03/02 09:39:29;;;;;;;59.28;27.40;;;;;;;;;;5065875;28;20048;-63
2023/03/02 09:42:09;;;;;;;58.38;28.40;;;;;;;;;;5084593;28;20058;-63
2023/03/02 09:44:36;;;;;;;54.50;28.77;;;;;;;;;;5088123;28;20105;-63
2023/03/02 09:47:09;;;;;;;52.00;25.23;;;;;;;;;;5087339;28;20567;-63
2023/03/02 09:49:50;;;;;;;47.35;25.30;;;;;;;;;;5085938;28;20059;-63
2023/03/02 09:52:19;;;;;;;50.38;27.27;;;;;;;;;;5082126;28;20109;-63
2023/03/02 09:54:45;;;;;;;49.15;27.98;;;;;;;;;;5084103;28;20051;-63
2023/03/02 09:57:20;;;;;;;56.97;25.83;;;;;;;;;;5083639;28;20043;-63
2023/03/02 09:59:48;;;;;;;46.97;26.67;;;;;;;;;;5054285;28;20043;-63
2023/03/02 10:02:26;;;;;;;50.78;27.50;;;;;;;;;;5063617;28;20044;-63
2023/03/02 10:04:53;;;;;;;50.90;29.00;;;;;;;;;;5070556;28;20489;-63
2023/03/02 10:07:24;;;;;;;52.30;27.35;;;;;;;;;;5079274;28;20043;-63
2023/03/02 10:09:50;;;;;;;45.65;24.20;;;;;;;;;;5083035;28;20052;-63
2023/03/02 10:12:17;;;;;;;58.25;28.33;;;;;;;;;;5065531;28;20056;-60
2023/03/02 10:14:54;;;;;;;51.97;27.73;;;;;;;;;;5082334;28;20554;-60
2023/03/02 10:17:33;;;;;;;49.83;24.98;;;;;;;;;;5086941;28;20126;-60
2023/03/02 10:20:02;;;;;;;50.92;25.38;;;;;;;;;;5050192;28;20035;-63
2023/03/02 10:22:32;;;;;;;56.03;27.42;;;;;;;;;;5085007;28;20126;-63
2023/03/02 10:25:07;;;;;;;54.63;27.70;;;;;;;;;;5084717;28;20040;-63
2023/03/02 10:27:38;;;;;;;54.97;26.75;;;;;;;;;;5084056;28;20036;-63
2023/03/02 10:30:16;;;;;;;48.67;24.90;;;;;;;;;;5083852;28;20101;-63
2023/03/02 10:32:44;;;;;;;45.40;22.85;;;;;;;;;;5083355;28;20040;-64
2023/03/02 10:35:13;;;;;;;53.70;24.95;;;;;;;;;;5081567;28;20040;-63
2023/03/02 10:37:40;;;;;;;55.25;26.65;;;;;;;;;;5063809;28;20036;-61
2023/03/02 10:40:06;;;;;;;44.03;24.70;;;;;;;;;;5084449;28;20147;-63
2023/03/02 10:42:37;;;;;;;48.03;23.42;;;;;;;;;;5083916;28;20487;-61
2023/03/02 10:45:23;;;;;;;54.95;26.63;;;;;;;;;;5084393;28;20118;-61
2023/03/02 10:47:59;;;;;;;45.85;25.17;;;;;;;;;;5082123;28;20032;-61
2023/03/02 10:50:25;;;;;;;46.83;24.88;;;;;;;;;;5084446;28;20367;-61
2023/03/02 10:52:51;;;;;;;45.83;23.83;;;;;;;;;;5085125;28;20036;-60
2023/03/02 10:55:17;;;;;;;51.72;24.95;;;;;;;;;;5084859;28;20047;-60
2023/03/02 10:57:44;;;;;;;44.00;22.92;;;;;;;;;;5083538;28;20051;-61
2023/03/02 11:00:17;;;;;;;42.70;22.88;;;;;;;;;;5085251;28;20067;-61
2023/03/02 11:03:18;;;;;;;37.72;19.17;;;4.80;99.90;;;;;;5066277;28;20123;-61
2023/03/02 11:05:44;;;;;;;35.97;18.17;;;;;;;;;;5078024;28;20044;-61
2023/03/02 11:08:18;;;;;;;39.15;18.45;;;;;;;;;;5084670;28;20774;-61
2023/03/02 11:10:53;;;;;;;38.22;19.48;;;;;;;;;;5084042;28;20157;-61
2023/03/02 11:13:27;;;;;;;43.85;21.73;;;;;;;;;;5083026;28;20528;-63
2023/03/02 11:15:55;;;;;;;36.65;20.05;;;;;;;;;;5081911;28;20040;-61
2023/03/02 11:18:30;;;;;;;41.90;21.63;;;;;;;;;;5083874;28;20040;-63
2023/03/02 11:21:02;;;;;;;50.25;23.75;;;;;;;;;;5082169;28;20098;-63
2023/03/02 11:23:40;;;;;;;39.05;20.38;;;;;;;;;;5082696;28;20079;-61
2023/03/02 11:26:12;;;;;;;41.08;22.10;;;;;;;;;;5084408;28;20062;-61
2023/03/02 11:28:45;;;;;;;44.78;21.95;;;;;;;;;;5081887;28;20040;-61
2023/03/02 11:31:22;;;;;;;35.85;19.02;;;;;;;;;;5085823;28;20042;-61
2023/03/02 11:33:58;;;;;;;37.97;20.83;;;5.40;99.90;;;;;;5082352;28;20032;-61
2023/03/02 11:36:38;;;;;;;43.47;22.25;;;6.10;99.90;;;;;;5083268;28;20397;-61
2023/03/02 11:39:11;;;;;;;43.83;23.45;;;6.20;99.90;;;;;;5066004;28;20040;-61
2023/03/02 11:41:37;;;;;;;44.80;20.85;;;;;;;;;;5080368;28;20613;-61
2023/03/02 11:44:32;;;;;;;48.00;23.33;;;;;;;;;;5084989;28;20071;-61
2023/03/02 11:47:00;;;;;;;49.92;24.77;;;;;;;;;;5066333;28;20051;-61
2023/03/02 11:49:53;;;;;;;44.55;22.58;;;;;;;;;;5054498;28;20039;-61
2023/03/02 11:52:21;;;;;;;29.73;18.65;;;;;;;;;;5089824;28;20048;-61
2023/03/02 11:54:53;;;;;;;29.25;15.75;;;;;;;;;;5087904;28;20078;-61
2023/03/02 11:57:29;;;;;;;28.63;16.35;;;;;;;;;;5090567;28;20040;-61
2023/03/02 11:59:57;;;;;;;34.05;18.75;;;;;;;;;;5089182;28;20040;-61
2023/03/02 12:02:24;;;;;;;31.70;17.83;;;;;;;;;;5086029;28;20043;-61
2023/03/02 12:05:00;;;;;;;30.00;16.95;;;;;;;;;;5077125;28;20046;-61
2023/03/02 12:07:26;;;;;;;33.17;18.10;;;;;;;;;;5085306;28;20142;-62
2023/03/02 12:09:59;;;;;;;31.85;17.80;;;;;;;;;;5080394;28;20131;-61
2023/03/02 12:12:25;;;;;;;34.28;18.35;;;;;;;;;;5086453;28;20048;-61
2023/03/02 12:14:52;;;;;;;28.48;14.48;;;;;;;;;;5082731;28;20106;-61
2023/03/02 12:17:21;;;;;;;33.90;18.55;;;;;;;;;;5087813;28;20048;-61
2023/03/02 12:19:48;;;;;;;25.60;15.45;;;;;;;;;;5080887;28;20037;-61
2023/03/02 12:22:25;;;;;;;26.80;17.92;;;;;;;;;;5066203;28;20127;-61
2023/03/02 12:24:58;;;;;;;26.70;14.73;;;;;;;;;;5061046;28;20114;-62
2023/03/02 12:27:26;;;;;;;26.80;15.20;;;;;;;;;;5083015;28;20043;-61
2023/03/02 12:30:09;;;;;;;24.27;14.00;;;;;;;;;;5084427;28;20039;-62
2023/03/02 12:32:36;;;;;;;23.75;13.82;;;;;;;;;;5084010;28;20521;-61
2023/03/02 12:35:08;;;;;;;24.90;12.82;;;;;;;;;;5086614;28;20533;-61
2023/03/02 12:37:43;;;;;;;22.87;13.07;;;;;;;;;;5087076;28;20321;-61
2023/03/02 12:40:27;;;;;;;20.80;12.90;;;;;;;;;;5085963;28;20298;-62
2023/03/02 12:42:56;;;;;;;22.17;13.18;;;;;;;;;;5081742;28;20286;-62
2023/03/02 12:45:22;;;;;;;23.52;13.18;;;;;;;;;;5079558;28;20064;-61
2023/03/02 12:47:52;;;;;;;19.70;12.40;;;;;;;;;;5082086;28;21237;-61
2023/03/02 12:50:18;;;;;;;18.80;11.25;;;;;;;;;;5086774;28;20059;-62
2023/03/02 12:52:45;;;;;;;18.00;11.30;;;;;;;;;;5082812;28;20047;-61
2023/03/02 12:55:11;;;;;;;27.95;18.55;;;;;;;;;;5085865;28;20128;-64
2023/03/02 12:57:38;;;;;;;30.42;21.95;;;;;;;;;;5086451;28;20040;-61
2023/03/02 13:00:04;;;;;;;30.65;20.65;;;;;;;;;;5085760;28;20394;-61
2023/03/02 13:02:32;;;;;;;18.58;13.32;;;;;;;;;;5063561;28;20055;-61
2023/03/02 13:05:03;;;;;;;17.35;11.63;;;;;;;;;;5082250;28;20393;-61
2023/03/02 13:07:35;;;;;;;19.02;11.52;;;;;;;;;;5084916;28;20115;-62
2023/03/02 13:10:05;;;;;;;16.73;10.82;;;;;;;;;;5082306;28;20816;-62
2023/03/02 13:12:31;;;;;;;19.25;11.48;;;;;;;;;;5085021;28;20516;-62
2023/03/02 13:14:58;;;;;;;21.75;12.63;;;;;;;;;;5085640;28;20071;-62
2023/03/02 13:17:29;;;;;;;18.60;11.85;;;;;;;;;;5069646;28;20138;-62
2023/03/02 13:19:57;;;;;;;20.05;11.57;;;;;;;;;;5081135;28;20320;-62
2023/03/02 13:22:24;;;;;;;23.58;12.15;;;;;;;;;;5084108;28;20040;-62
2023/03/02 13:25:04;;;;;;;17.83;11.48;;;;;;;;;;5085414;28;20028;-62
2023/03/02 13:27:32;;;;;;;16.90;11.40;;;;;;;;;;5086913;28;20417;-62
2023/03/02 13:30:09;;;;;;;18.48;11.13;;;;;;;;;;5085703;28;20509;-62
2023/03/02 13:32:38;;;;;;;18.02;11.63;;;;;;;;;;5082219;28;20075;-63
2023/03/02 13:35:14;;;;;;;16.17;10.73;;;;;;;;;;5089464;28;20516;-62
2023/03/02 13:37:42;;;;;;;13.68;9.57;;;;;;;;;;5090713;28;20043;-62
2023/03/02 13:40:37;;;;;;;15.10;10.05;;;;;;;;;;5088697;28;20151;-62
2023/03/02 13:43:07;;;;;;;14.85;8.73;;;;;;;;;;5075410;28;20048;-62
2023/03/02 13:45:33;;;;;;;14.70;9.98;;;;;;;;;;5087286;28;20029;-63
2023/03/02 13:48:00;;;;;;;13.85;9.35;;;;;;;;;;5063933;28;20046;-63
2023/03/02 13:50:31;;;;;;;15.18;10.13;;;;;;;;;;5089843;28;20051;-62
2023/03/02 13:53:00;;;;;;;15.52;9.85;;;;;;;;;;5084554;28;20359;-63
2023/03/02 13:55:26;;;;;;;16.67;9.10;;;;;;;;;;5067921;28;20115;-62
2023/03/02 13:57:53;;;;;;;11.95;8.50;;;;;;;;;;5087896;28;20044;-62
2023/03/02 14:00:26;;;;;;;14.40;10.23;;;;;;;;;;5088793;28;20497;-63
2023/03/02 14:02:52;;;;;;;15.50;10.77;;;;;;;;;;5084862;28;20334;-63
2023/03/02 14:05:31;;;;;;;18.35;9.90;;;;;;;;;;5085667;28;20469;-62
2023/03/02 14:07:58;;;;;;;9.45;7.53;;;;;;;;;;5087787;28;20404;-62
2023/03/02 14:10:24;;;;;;;13.75;8.02;;;;;;;;;;5092605;28;20068;-62
2023/03/02 14:12:59;;;;;;;10.95;7.68;;;;;;;;;;5086630;28;20122;-62
2023/03/02 14:15:25;;;;;;;14.00;7.60;;;;;;;;;;5064165;28;20052;-62
2023/03/02 14:17:52;;;;;;;12.20;8.00;;;;;;;;;;5093159;28;20118;-62
2023/03/02 14:20:19;;;;;;;10.15;6.75;;;;;;;;;;5086267;28;20071;-63
2023/03/02 14:22:49;;;;;;;12.73;8.45;;;;;;;;;;5079237;28;20044;-62